createdAt,value
2023-01-18T00:00:09.482Z,999.90
2023-01-18T00:01:09.461Z,999.90
2023-01-18T00:02:09.558Z,525.50
2023-01-18T00:03:09.443Z,608.60
2023-01-18T00:04:09.437Z,573.10
2023-01-18T00:05:09.449Z,594.40
2023-01-18T00:06:09.397Z,608.10
2023-01-18T00:07:09.438Z,624.60
2023-01-18T00:08:09.378Z,582.00
2023-01-18T00:09:09.371Z,759.40
2023-01-18T00:10:09.362Z,664.20
2023-01-18T00:11:09.356Z,760.90
2023-01-18T00:12:09.395Z,999.90
2023-01-18T00:13:09.327Z,760.60
2023-01-18T00:14:09.332Z,999.90
2023-01-18T00:15:09.304Z,999.90
2023-01-18T00:16:09.314Z,999.90
2023-01-18T00:17:09.320Z,999.90
2023-01-18T00:18:09.246Z,999.90
2023-01-18T00:19:09.245Z,698.90
2023-01-18T00:20:09.254Z,593.30
2023-01-18T00:21:09.253Z,669.50
2023-01-18T00:22:09.259Z,886.30
2023-01-18T00:23:09.225Z,999.90
2023-01-18T00:24:09.221Z,999.90
2023-01-18T00:25:09.194Z,999.90
2023-01-18T00:26:09.204Z,555.00
2023-01-18T00:27:09.227Z,656.50
2023-01-18T00:28:09.173Z,637.60
2023-01-18T00:29:09.155Z,687.70
2023-01-18T00:30:09.132Z,987.90
2023-01-18T00:31:09.128Z,695.50
2023-01-18T00:32:09.170Z,663.00
2023-01-18T00:33:09.107Z,435.10
2023-01-18T00:34:09.096Z,468.30
2023-01-18T00:35:09.070Z,496.40
2023-01-18T00:36:09.064Z,434.50
2023-01-18T00:37:09.096Z,446.70
2023-01-18T00:38:09.047Z,436.50
2023-01-18T00:39:09.037Z,430.20
2023-01-18T00:40:09.034Z,439.20
2023-01-18T00:41:09.026Z,465.60
2023-01-18T00:42:09.047Z,485.00
2023-01-18T00:43:09.014Z,483.40
2023-01-18T00:44:08.994Z,498.80
2023-01-18T00:45:08.956Z,466.90
2023-01-18T00:46:09.010Z,451.10
2023-01-18T00:47:08.996Z,455.20
2023-01-18T00:48:08.945Z,444.00
2023-01-18T00:49:08.930Z,443.30
2023-01-18T00:50:08.906Z,437.00
2023-01-18T00:51:08.904Z,433.60
2023-01-18T00:52:08.934Z,423.70
2023-01-18T00:53:08.893Z,414.00
2023-01-18T00:54:08.879Z,408.20
2023-01-18T00:55:08.874Z,404.10
2023-01-18T00:56:08.882Z,398.60
2023-01-18T00:57:08.889Z,385.10
2023-01-18T00:58:08.837Z,391.90
2023-01-18T00:59:08.804Z,372.90
2023-01-18T01:00:08.807Z,401.90
2023-01-18T01:01:08.873Z,379.90
2023-01-18T01:02:08.948Z,389.40
2023-01-18T01:03:08.775Z,438.20
2023-01-18T01:04:08.775Z,340.50
2023-01-18T01:05:08.761Z,380.00
2023-01-18T01:06:08.750Z,407.40
2023-01-18T01:07:08.790Z,475.60
2023-01-18T01:08:08.704Z,380.00
2023-01-18T01:09:08.716Z,307.40
2023-01-18T01:10:08.689Z,400.60
2023-01-18T01:11:08.694Z,801.30
2023-01-18T01:12:08.742Z,757.70
2023-01-18T01:13:08.696Z,344.00
2023-01-18T01:14:08.632Z,218.40
2023-01-18T01:15:08.631Z,337.50
2023-01-18T01:16:08.622Z,316.90
2023-01-18T01:17:08.680Z,155.60
2023-01-18T01:18:08.601Z,510.80
2023-01-18T01:19:08.621Z,470.00
2023-01-18T01:20:08.586Z,457.30
2023-01-18T01:21:08.571Z,409.50
2023-01-18T01:22:08.593Z,418.00
2023-01-18T01:23:08.558Z,161.50
2023-01-18T01:24:08.552Z,342.90
2023-01-18T01:25:08.539Z,426.90
2023-01-18T01:26:08.569Z,405.30
2023-01-18T01:27:08.592Z,335.60
2023-01-18T01:28:08.503Z,387.10
2023-01-18T01:29:08.492Z,368.60
2023-01-18T01:30:08.485Z,351.90
2023-01-18T01:31:08.523Z,327.70
2023-01-18T01:32:08.508Z,258.10
2023-01-18T01:33:08.456Z,426.90
2023-01-18T01:34:08.434Z,374.90
2023-01-18T01:35:08.446Z,352.50
2023-01-18T01:36:08.405Z,347.50
2023-01-18T01:37:08.453Z,342.90
2023-01-18T01:38:08.411Z,296.70
2023-01-18T01:39:08.398Z,363.20
2023-01-18T01:40:08.373Z,352.70
2023-01-18T01:41:08.352Z,336.60
2023-01-18T01:42:08.381Z,319.60
2023-01-18T01:43:08.323Z,310.80
2023-01-18T01:44:08.338Z,284.90
2023-01-18T01:45:08.311Z,252.10
2023-01-18T01:46:08.345Z,278.40
2023-01-18T01:47:08.334Z,253.90
2023-01-18T01:48:08.303Z,247.00
2023-01-18T01:49:08.326Z,239.10
2023-01-18T01:50:08.240Z,229.80
2023-01-18T01:51:08.227Z,219.50
2023-01-18T01:52:08.295Z,295.80
2023-01-18T01:53:08.220Z,285.60
2023-01-18T01:54:08.226Z,281.70
2023-01-18T01:55:08.196Z,273.10
2023-01-18T01:56:08.183Z,253.30
2023-01-18T01:57:08.247Z,234.50
2023-01-18T01:58:08.174Z,209.70
2023-01-18T01:59:08.175Z,154.90
2023-01-18T02:00:08.169Z,323.00
2023-01-18T02:01:08.279Z,343.60
2023-01-18T02:02:08.264Z,321.00
2023-01-18T02:03:08.136Z,228.10
2023-01-18T02:04:08.146Z,264.60
2023-01-18T02:05:08.086Z,156.70
2023-01-18T02:06:08.093Z,242.80
2023-01-18T02:07:08.115Z,342.40
2023-01-18T02:08:08.050Z,272.80
2023-01-18T02:09:08.057Z,297.50
2023-01-18T02:10:08.065Z,293.70
2023-01-18T02:11:08.055Z,260.30
2023-01-18T02:12:08.082Z,262.70
2023-01-18T02:13:08.015Z,269.80
2023-01-18T02:14:07.984Z,237.60
2023-01-18T02:15:08.000Z,230.90
2023-01-18T02:16:07.996Z,230.90
2023-01-18T02:17:08.033Z,214.50
2023-01-18T02:18:07.995Z,197.90
2023-01-18T02:19:07.959Z,336.40
2023-01-18T02:20:07.930Z,368.10
2023-01-18T02:21:07.939Z,365.90
2023-01-18T02:22:07.912Z,378.90
2023-01-18T02:23:07.953Z,379.70
2023-01-18T02:24:07.904Z,372.20
2023-01-18T02:25:07.878Z,196.90
2023-01-18T02:26:07.871Z,239.00
2023-01-18T02:27:07.845Z,286.90
2023-01-18T02:28:07.884Z,202.10
2023-01-18T02:29:07.827Z,276.70
2023-01-18T02:30:07.822Z,357.40
2023-01-18T02:31:07.842Z,216.70
2023-01-18T02:32:07.791Z,258.60
2023-01-18T02:33:07.821Z,260.60
2023-01-18T02:34:07.779Z,208.40
2023-01-18T02:35:07.747Z,358.90
2023-01-18T02:36:07.766Z,443.60
2023-01-18T02:37:07.723Z,410.80
2023-01-18T02:38:07.755Z,409.00
2023-01-18T02:39:09.945Z,368.10
2023-01-18T02:40:07.707Z,220.20
2023-01-18T02:41:07.693Z,325.80
2023-01-18T02:42:07.679Z,328.40
2023-01-18T02:43:07.711Z,265.30
2023-01-18T02:44:07.673Z,213.80
2023-01-18T02:45:07.634Z,354.20
2023-01-18T02:46:07.707Z,334.90
2023-01-18T02:47:07.628Z,462.00
2023-01-18T02:48:07.662Z,469.90
2023-01-18T02:49:07.599Z,479.90
2023-01-18T02:50:07.628Z,492.00
2023-01-18T02:51:07.598Z,234.20
2023-01-18T02:52:07.574Z,244.80
2023-01-18T02:53:07.601Z,434.40
2023-01-18T02:54:07.556Z,488.10
2023-01-18T02:55:07.560Z,451.60
2023-01-18T02:56:07.532Z,446.10
2023-01-18T02:57:07.508Z,421.30
2023-01-18T02:58:07.553Z,319.80
2023-01-18T02:59:07.502Z,512.20
2023-01-18T03:00:07.491Z,501.60
2023-01-18T03:01:07.760Z,499.50
2023-01-18T03:02:07.485Z,495.50
2023-01-18T03:03:07.484Z,493.20
2023-01-18T03:04:07.441Z,488.30
2023-01-18T03:05:07.416Z,231.90
2023-01-18T03:06:07.407Z,433.70
2023-01-18T03:07:07.396Z,450.50
2023-01-18T03:08:07.425Z,436.40
2023-01-18T03:09:07.374Z,253.60
2023-01-18T03:10:07.366Z,471.80
2023-01-18T03:11:07.345Z,502.20
2023-01-18T03:12:07.352Z,500.60
2023-01-18T03:13:07.368Z,491.40
2023-01-18T03:14:07.324Z,233.20
2023-01-18T03:15:07.298Z,249.50
2023-01-18T03:16:07.370Z,409.90
2023-01-18T03:17:07.276Z,242.10
2023-01-18T03:18:07.324Z,255.20
2023-01-18T03:19:07.274Z,481.60
2023-01-18T03:20:07.263Z,472.40
2023-01-18T03:21:07.250Z,460.20
2023-01-18T03:22:07.233Z,452.90
2023-01-18T03:23:07.302Z,335.30
2023-01-18T03:24:07.239Z,237.70
2023-01-18T03:25:07.207Z,431.20
2023-01-18T03:26:07.191Z,407.00
2023-01-18T03:27:07.177Z,453.60
2023-01-18T03:28:07.216Z,451.90
2023-01-18T03:29:07.143Z,430.40
2023-01-18T03:30:07.158Z,424.20
2023-01-18T03:31:07.237Z,407.00
2023-01-18T03:32:07.128Z,386.20
2023-01-18T03:33:07.155Z,222.80
2023-01-18T03:34:07.098Z,285.10
2023-01-18T03:35:07.094Z,354.00
2023-01-18T03:36:07.065Z,333.90
2023-01-18T03:37:07.076Z,240.10
2023-01-18T03:38:07.098Z,234.80
2023-01-18T03:39:07.042Z,322.50
2023-01-18T03:40:07.049Z,354.80
2023-01-18T03:41:07.047Z,327.50
2023-01-18T03:42:07.032Z,197.00
2023-01-18T03:43:07.050Z,185.60
2023-01-18T03:44:06.987Z,223.30
2023-01-18T03:45:06.969Z,187.40
2023-01-18T03:46:06.973Z,374.90
2023-01-18T03:47:06.947Z,338.10
2023-01-18T03:48:06.984Z,338.40
2023-01-18T03:49:06.919Z,243.90
2023-01-18T03:50:06.929Z,203.00
2023-01-18T03:51:06.915Z,356.40
2023-01-18T03:52:06.907Z,378.30
2023-01-18T03:53:06.935Z,378.20
2023-01-18T03:54:06.889Z,349.40
2023-01-18T03:55:06.867Z,355.50
2023-01-18T03:56:06.854Z,343.50
2023-01-18T03:57:06.844Z,169.20
2023-01-18T03:58:06.881Z,204.70
2023-01-18T03:59:06.813Z,196.30
2023-01-18T04:00:06.810Z,298.10
2023-01-18T04:01:06.826Z,176.70
2023-01-18T04:02:06.823Z,176.20
2023-01-18T04:03:06.834Z,336.60
2023-01-18T04:04:06.762Z,342.90
2023-01-18T04:05:06.730Z,325.30
2023-01-18T04:06:06.718Z,327.90
2023-01-18T04:07:06.730Z,312.20
2023-01-18T04:08:06.763Z,318.70
2023-01-18T04:09:06.710Z,312.60
2023-01-18T04:10:06.690Z,273.70
2023-01-18T04:11:06.676Z,159.70
2023-01-18T04:12:06.677Z,200.10
2023-01-18T04:13:06.705Z,162.30
2023-01-18T04:14:06.647Z,197.30
2023-01-18T04:15:06.632Z,188.20
2023-01-18T04:16:06.661Z,377.30
2023-01-18T04:17:06.622Z,742.30
2023-01-18T04:18:06.648Z,524.10
2023-01-18T04:19:06.589Z,381.40
2023-01-18T04:20:06.583Z,383.40
2023-01-18T04:21:06.590Z,400.50
2023-01-18T04:22:08.373Z,407.80
2023-01-18T04:23:06.585Z,410.20
2023-01-18T04:24:06.547Z,404.60
2023-01-18T04:25:06.565Z,404.90
2023-01-18T04:26:06.530Z,416.00
2023-01-18T04:27:06.509Z,411.40
2023-01-18T04:28:06.551Z,409.40
2023-01-18T04:29:06.478Z,408.00
2023-01-18T04:30:06.478Z,405.40
2023-01-18T04:31:06.492Z,412.60
2023-01-18T04:32:06.453Z,412.10
2023-01-18T04:33:06.484Z,414.70
2023-01-18T04:34:06.431Z,413.50
2023-01-18T04:35:06.416Z,421.80
2023-01-18T04:36:06.403Z,420.00
2023-01-18T04:37:06.398Z,416.90
2023-01-18T04:38:06.448Z,413.50
2023-01-18T04:39:06.375Z,415.60
2023-01-18T04:40:06.382Z,162.10
2023-01-18T04:41:06.355Z,157.70
2023-01-18T04:42:06.357Z,164.70
2023-01-18T04:43:06.391Z,139.10
2023-01-18T04:44:06.331Z,193.30
2023-01-18T04:45:06.317Z,184.40
2023-01-18T04:46:06.303Z,276.90
2023-01-18T04:47:06.280Z,424.80
2023-01-18T04:48:06.323Z,369.50
2023-01-18T04:49:06.274Z,369.10
2023-01-18T04:50:06.270Z,362.70
2023-01-18T04:51:06.231Z,349.90
2023-01-18T04:52:06.241Z,150.30
2023-01-18T04:53:06.256Z,151.20
2023-01-18T04:54:06.220Z,145.70
2023-01-18T04:55:06.184Z,156.90
2023-01-18T04:56:06.199Z,158.10
2023-01-18T04:57:06.163Z,155.20
2023-01-18T04:58:06.208Z,298.80
2023-01-18T04:59:06.145Z,411.10
2023-01-18T05:00:08.571Z,363.00
2023-01-18T05:01:06.221Z,368.40
2023-01-18T05:02:06.128Z,352.10
2023-01-18T05:03:06.150Z,368.20
2023-01-18T05:04:06.079Z,277.80
2023-01-18T05:05:06.077Z,100.90
2023-01-18T05:06:06.069Z,249.20
2023-01-18T05:07:06.057Z,380.40
2023-01-18T05:08:06.114Z,398.40
2023-01-18T05:09:06.050Z,278.70
2023-01-18T05:10:06.059Z,265.30
2023-01-18T05:11:06.006Z,116.20
2023-01-18T05:12:05.997Z,103.10
2023-01-18T05:13:06.045Z,121.60
2023-01-18T05:14:05.977Z,149.30
2023-01-18T05:15:06.003Z,119.40
2023-01-18T05:16:06.386Z,121.70
2023-01-18T05:17:05.953Z,112.90
2023-01-18T05:18:05.989Z,110.50
2023-01-18T05:19:05.967Z,207.60
2023-01-18T05:20:05.940Z,482.70
2023-01-18T05:21:05.896Z,444.90
2023-01-18T05:22:05.891Z,440.20
2023-01-18T05:23:05.874Z,431.00
2023-01-18T05:24:05.921Z,425.30
2023-01-18T05:25:05.854Z,102.90
2023-01-18T05:26:05.857Z,106.40
2023-01-18T05:27:05.833Z,106.00
2023-01-18T05:28:05.829Z,103.20
2023-01-18T05:29:05.856Z,114.30
2023-01-18T05:30:06.895Z,102.00
2023-01-18T05:31:05.819Z,481.70
2023-01-18T05:32:05.806Z,494.30
2023-01-18T05:33:05.764Z,484.80
2023-01-18T05:34:05.808Z,490.90
2023-01-18T05:35:05.746Z,489.10
2023-01-18T05:36:05.747Z,488.90
2023-01-18T05:37:05.740Z,488.50
2023-01-18T05:38:05.721Z,486.00
2023-01-18T05:39:05.770Z,477.40
2023-01-18T05:40:05.716Z,480.10
2023-01-18T05:41:05.683Z,478.10
2023-01-18T05:42:05.707Z,390.30
2023-01-18T05:43:05.656Z,400.00
2023-01-18T05:44:05.688Z,408.10
2023-01-18T05:45:05.633Z,411.70
2023-01-18T05:46:05.666Z,402.00
2023-01-18T05:47:05.620Z,257.80
2023-01-18T05:48:05.622Z,107.90
2023-01-18T05:49:05.639Z,90.10
2023-01-18T05:50:05.592Z,112.80
2023-01-18T05:51:05.566Z,114.00
2023-01-18T05:52:05.568Z,98.20
2023-01-18T05:53:05.539Z,116.30
2023-01-18T05:54:05.587Z,109.10
2023-01-18T05:55:05.555Z,99.80
2023-01-18T05:56:05.548Z,114.40
2023-01-18T05:57:05.507Z,124.60
2023-01-18T05:58:05.532Z,117.90
2023-01-18T05:59:05.535Z,158.60
2023-01-18T06:00:05.485Z,404.10
2023-01-18T06:01:05.480Z,414.50
2023-01-18T06:02:05.495Z,379.10
2023-01-18T06:03:05.445Z,376.90
2023-01-18T06:04:05.513Z,363.90
2023-01-18T06:05:05.412Z,315.80
2023-01-18T06:06:05.405Z,123.80
2023-01-18T06:07:05.393Z,118.90
2023-01-18T06:08:05.393Z,127.40
2023-01-18T06:09:05.414Z,363.90
2023-01-18T06:10:05.352Z,346.20
2023-01-18T06:11:05.365Z,207.00
2023-01-18T06:12:05.339Z,104.20
2023-01-18T06:13:05.336Z,131.10
2023-01-18T06:14:05.363Z,104.20
2023-01-18T06:15:05.299Z,116.30
2023-01-18T06:16:05.332Z,115.50
2023-01-18T06:17:05.289Z,122.50
2023-01-18T06:18:05.275Z,332.80
2023-01-18T06:19:05.320Z,352.30
2023-01-18T06:20:05.257Z,339.40
2023-01-18T06:21:05.257Z,343.90
2023-01-18T06:22:05.229Z,205.90
2023-01-18T06:23:05.231Z,118.30
2023-01-18T06:24:05.255Z,148.70
2023-01-18T06:25:05.185Z,118.80
2023-01-18T06:26:05.182Z,366.90
2023-01-18T06:27:05.176Z,337.60
2023-01-18T06:28:05.140Z,310.40
2023-01-18T06:29:05.188Z,85.70
2023-01-18T06:30:05.142Z,108.90
2023-01-18T06:31:05.126Z,104.90
2023-01-18T06:32:05.129Z,113.30
2023-01-18T06:33:05.102Z,106.00
2023-01-18T06:34:05.139Z,103.20
2023-01-18T06:35:05.083Z,96.90
2023-01-18T06:36:05.069Z,298.60
2023-01-18T06:37:05.060Z,98.50
2023-01-18T06:38:05.040Z,105.60
2023-01-18T06:39:05.112Z,97.40
2023-01-18T06:40:05.057Z,157.00
2023-01-18T06:41:05.010Z,310.90
2023-01-18T06:42:05.013Z,293.00
2023-01-18T06:43:05.018Z,141.50
2023-01-18T06:44:05.034Z,105.10
2023-01-18T06:45:04.975Z,94.10
2023-01-18T06:46:05.028Z,104.10
2023-01-18T06:47:04.961Z,94.70
2023-01-18T06:48:04.952Z,107.40
2023-01-18T06:49:04.965Z,378.30
2023-01-18T06:50:04.916Z,436.10
2023-01-18T06:51:04.907Z,436.30
2023-01-18T06:52:04.897Z,440.50
2023-01-18T06:53:04.914Z,443.50
2023-01-18T06:54:04.917Z,429.60
2023-01-18T06:55:04.878Z,430.00
2023-01-18T06:56:04.855Z,427.00
2023-01-18T06:57:04.846Z,433.30
2023-01-18T06:58:04.827Z,431.80
2023-01-18T06:59:07.020Z,434.50
2023-01-18T07:00:04.794Z,413.10
2023-01-18T07:01:04.845Z,425.60
2023-01-18T07:02:04.854Z,409.40
2023-01-18T07:03:04.777Z,316.30
2023-01-18T07:04:04.842Z,380.30
2023-01-18T07:05:04.745Z,396.80
2023-01-18T07:06:04.758Z,395.40
2023-01-18T07:07:04.731Z,409.60
2023-01-18T07:08:04.719Z,412.60
2023-01-18T07:09:04.743Z,427.20
2023-01-18T07:10:04.699Z,425.20
2023-01-18T07:11:04.695Z,423.90
2023-01-18T07:12:04.661Z,409.30
2023-01-18T07:13:04.656Z,399.80
2023-01-18T07:14:04.694Z,383.20
2023-01-18T07:15:16.439Z,388.50
2023-01-18T07:16:05.620Z,386.00
2023-01-18T07:17:04.613Z,404.20
2023-01-18T07:18:04.612Z,422.00
2023-01-18T07:19:04.670Z,431.80
2023-01-18T07:20:04.579Z,147.90
2023-01-18T07:21:04.595Z,114.90
2023-01-18T07:22:04.560Z,123.30
2023-01-18T07:23:04.548Z,110.80
2023-01-18T07:24:04.586Z,88.90
2023-01-18T07:25:04.551Z,119.80
2023-01-18T07:26:04.511Z,129.70
2023-01-18T07:27:04.510Z,138.30
2023-01-18T07:28:04.497Z,370.10
2023-01-18T07:29:04.522Z,504.20
2023-01-18T07:30:04.468Z,478.00
2023-01-18T07:31:04.455Z,442.80
2023-01-18T07:32:04.483Z,439.70
2023-01-18T07:33:04.431Z,124.60
2023-01-18T07:34:04.472Z,128.90
2023-01-18T07:35:04.410Z,126.10
2023-01-18T07:36:04.410Z,142.60
2023-01-18T07:37:04.391Z,142.80
2023-01-18T07:38:04.387Z,134.20
2023-01-18T07:39:04.412Z,139.80
2023-01-18T07:40:04.357Z,129.90
2023-01-18T07:41:04.367Z,142.10
2023-01-18T07:42:04.346Z,147.80
2023-01-18T07:43:04.334Z,138.30
2023-01-18T07:44:04.356Z,188.30
2023-01-18T07:45:04.322Z,202.00
2023-01-18T07:46:04.351Z,170.10
2023-01-18T07:47:04.280Z,198.70
2023-01-18T07:48:04.267Z,233.00
2023-01-18T07:49:04.299Z,446.90
2023-01-18T07:50:04.243Z,439.80
2023-01-18T07:51:04.244Z,443.20
2023-01-18T07:52:04.224Z,417.20
2023-01-18T07:53:04.209Z,217.30
2023-01-18T07:54:04.260Z,167.80
2023-01-18T07:55:06.559Z,179.90
2023-01-18T07:56:04.172Z,165.60
2023-01-18T07:57:04.172Z,177.50
2023-01-18T07:58:04.150Z,176.90
2023-01-18T07:59:04.192Z,197.50
2023-01-18T08:00:04.135Z,194.70
2023-01-18T08:01:04.187Z,215.00
2023-01-18T08:02:04.139Z,219.20
2023-01-18T08:03:04.623Z,190.40
2023-01-18T08:04:04.180Z,192.40
2023-01-18T08:05:04.075Z,197.50
2023-01-18T08:06:04.070Z,219.20
2023-01-18T08:07:04.069Z,193.80
2023-01-18T08:08:04.060Z,189.80
2023-01-18T08:09:04.087Z,185.20
2023-01-18T08:10:04.042Z,194.50
2023-01-18T08:11:04.056Z,190.30
2023-01-18T08:12:04.005Z,207.30
2023-01-18T08:13:04.008Z,208.20
2023-01-18T08:14:04.041Z,168.10
2023-01-18T08:15:03.964Z,171.50
2023-01-18T08:16:04.031Z,226.00
2023-01-18T08:17:03.958Z,185.30
2023-01-18T08:18:03.957Z,194.70
2023-01-18T08:19:03.969Z,209.20
2023-01-18T08:20:03.926Z,167.90
2023-01-18T08:21:03.913Z,506.30
2023-01-18T08:22:03.888Z,473.90
2023-01-18T08:23:03.895Z,440.30
2023-01-18T08:24:03.900Z,139.70
2023-01-18T08:25:03.839Z,168.20
2023-01-18T08:26:03.859Z,155.60
2023-01-18T08:27:03.838Z,145.30
2023-01-18T08:28:03.832Z,134.70
2023-01-18T08:29:03.812Z,126.20
2023-01-18T08:30:03.836Z,130.80
2023-01-18T08:31:03.813Z,118.60
2023-01-18T08:32:03.774Z,123.30
2023-01-18T08:33:03.768Z,134.80
2023-01-18T08:34:03.777Z,107.10
2023-01-18T08:35:03.822Z,154.80
2023-01-18T08:36:03.729Z,412.30
2023-01-18T08:37:03.759Z,389.30
2023-01-18T08:38:03.686Z,383.90
2023-01-18T08:39:03.720Z,93.50
2023-01-18T08:40:03.749Z,100.40
2023-01-18T08:41:03.696Z,100.40
2023-01-18T08:42:03.657Z,103.10
2023-01-18T08:43:03.643Z,99.40
2023-01-18T08:44:03.652Z,105.30
2023-01-18T08:45:03.710Z,83.40
2023-01-18T08:46:03.705Z,101.40
2023-01-18T08:47:03.611Z,112.90
2023-01-18T08:48:03.608Z,102.90
2023-01-18T08:49:03.612Z,108.40
2023-01-18T08:50:03.614Z,290.70
2023-01-18T08:51:03.589Z,357.50
2023-01-18T08:52:03.558Z,300.20
2023-01-18T08:53:03.557Z,271.70
2023-01-18T08:54:03.543Z,235.40
2023-01-18T08:55:03.557Z,227.70
2023-01-18T08:56:03.511Z,213.30
2023-01-18T08:57:03.571Z,173.70
2023-01-18T08:58:03.462Z,81.70
2023-01-18T08:59:03.519Z,89.40
2023-01-18T09:00:03.505Z,92.20
2023-01-18T09:01:03.499Z,93.70
2023-01-18T09:02:03.492Z,104.40
2023-01-18T09:03:03.833Z,104.00
2023-01-18T09:04:03.407Z,126.70
2023-01-18T09:05:03.454Z,100.80
2023-01-18T09:06:03.401Z,91.10
2023-01-18T09:07:03.405Z,253.90
2023-01-18T09:08:03.359Z,252.40
2023-01-18T09:09:03.387Z,247.50
2023-01-18T09:10:03.441Z,246.20
2023-01-18T09:11:03.354Z,254.90
2023-01-18T09:12:03.350Z,247.80
2023-01-18T09:13:03.326Z,255.00
2023-01-18T09:14:03.300Z,223.90
2023-01-18T09:15:03.357Z,175.80
2023-01-18T09:16:03.349Z,93.00
2023-01-18T09:17:03.269Z,93.30
2023-01-18T09:18:03.256Z,85.60
2023-01-18T09:19:03.231Z,101.20
2023-01-18T09:20:03.304Z,97.10
2023-01-18T09:21:03.230Z,90.70
2023-01-18T09:22:03.219Z,104.60
2023-01-18T09:23:03.220Z,88.10
2023-01-18T09:24:03.191Z,103.50
2023-01-18T09:25:03.221Z,102.80
2023-01-18T09:26:03.181Z,230.60
2023-01-18T09:27:03.166Z,229.90
2023-01-18T09:28:03.168Z,94.60
2023-01-18T09:29:03.139Z,98.10
2023-01-18T09:30:03.184Z,91.90
2023-01-18T09:31:03.180Z,108.00
2023-01-18T09:32:03.110Z,111.90
2023-01-18T09:33:03.095Z,106.30
2023-01-18T09:34:18.458Z,86.70
2023-01-18T09:35:04.121Z,120.80
2023-01-18T09:36:03.102Z,105.90
2023-01-18T09:37:03.070Z,107.80
2023-01-18T09:38:03.031Z,124.90
2023-01-18T09:39:03.037Z,114.00
2023-01-18T09:40:03.092Z,230.50
2023-01-18T09:41:03.007Z,294.80
2023-01-18T09:42:03.001Z,281.30
2023-01-18T09:43:03.010Z,263.20
2023-01-18T09:44:02.994Z,248.70
2023-01-18T09:45:03.000Z,112.20
2023-01-18T09:46:02.966Z,108.40
2023-01-18T09:47:02.961Z,112.50
2023-01-18T09:48:02.920Z,115.20
2023-01-18T09:49:02.906Z,105.50
2023-01-18T09:50:02.960Z,126.50
2023-01-18T09:51:02.904Z,128.90
2023-01-18T09:52:02.924Z,312.30
2023-01-18T09:53:02.885Z,319.50
2023-01-18T09:54:02.871Z,319.50
2023-01-18T09:55:02.901Z,321.70
2023-01-18T09:56:02.863Z,322.80
2023-01-18T09:57:02.851Z,324.70
2023-01-18T09:58:02.820Z,319.70
2023-01-18T09:59:02.802Z,319.30
2023-01-18T10:00:02.801Z,292.30
2023-01-18T10:01:02.950Z,275.80
2023-01-18T10:02:02.887Z,271.40
2023-01-18T10:03:02.781Z,254.40
2023-01-18T10:04:02.765Z,91.70
2023-01-18T10:05:02.727Z,119.40
2023-01-18T10:06:02.777Z,122.60
2023-01-18T10:07:02.717Z,109.20
2023-01-18T10:08:02.783Z,110.40
2023-01-18T10:09:02.697Z,124.30
2023-01-18T10:10:02.698Z,124.20
2023-01-18T10:11:02.753Z,117.10
2023-01-18T10:12:02.666Z,117.40
2023-01-18T10:13:02.652Z,124.50
2023-01-18T10:14:02.643Z,113.50
2023-01-18T10:15:02.608Z,129.00
2023-01-18T10:16:02.771Z,125.40
2023-01-18T10:17:02.614Z,157.10
2023-01-18T10:18:02.596Z,115.70
2023-01-18T10:19:02.574Z,153.20
2023-01-18T10:20:02.568Z,162.10
2023-01-18T10:21:02.650Z,248.80
2023-01-18T10:22:02.562Z,149.40
2023-01-18T10:23:02.517Z,108.20
2023-01-18T10:24:02.533Z,122.30
2023-01-18T10:25:02.647Z,94.00
2023-01-18T10:26:02.560Z,122.40
2023-01-18T10:27:02.508Z,151.00
2023-01-18T10:28:02.486Z,93.40
2023-01-18T10:29:02.468Z,117.70
2023-01-18T10:30:02.466Z,175.60
2023-01-18T10:31:02.489Z,143.00
2023-01-18T10:32:02.453Z,100.10
2023-01-18T10:33:02.822Z,176.00
2023-01-18T10:34:02.433Z,122.70
2023-01-18T10:35:02.411Z,113.20
2023-01-18T10:36:02.443Z,123.70
2023-01-18T10:37:02.385Z,106.10
2023-01-18T10:38:02.483Z,163.80
2023-01-18T10:39:02.360Z,143.10
2023-01-18T10:40:02.367Z,251.30
2023-01-18T10:41:02.423Z,237.70
2023-01-18T10:42:03.557Z,217.60
2023-01-18T10:43:02.651Z,105.50
2023-01-18T10:44:02.314Z,110.70
2023-01-18T10:45:02.288Z,139.80
2023-01-18T10:46:02.402Z,105.50
2023-01-18T10:47:02.282Z,125.30
2023-01-18T10:48:02.248Z,101.40
2023-01-18T10:49:02.255Z,149.70
2023-01-18T10:50:02.245Z,121.10
2023-01-18T10:51:02.284Z,148.40
2023-01-18T10:52:02.218Z,122.50
2023-01-18T10:53:02.316Z,167.90
2023-01-18T10:54:02.200Z,249.20
2023-01-18T10:55:02.185Z,231.60
2023-01-18T10:56:02.378Z,215.40
2023-01-18T10:57:02.159Z,106.50
2023-01-18T10:58:02.194Z,100.10
2023-01-18T10:59:02.126Z,135.70
2023-01-18T11:00:02.131Z,77.90
2023-01-18T11:01:02.326Z,104.90
2023-01-18T11:02:02.343Z,121.30
2023-01-18T11:03:02.502Z,163.50
2023-01-18T11:04:02.083Z,123.20
2023-01-18T11:05:02.072Z,127.60
2023-01-18T11:06:02.104Z,119.00
2023-01-18T11:07:02.047Z,93.10
2023-01-18T11:08:02.771Z,118.10
2023-01-18T11:09:02.008Z,109.50
2023-01-18T11:10:02.031Z,157.30
2023-01-18T11:11:02.078Z,250.00
2023-01-18T11:12:02.001Z,231.30
2023-01-18T11:13:02.031Z,219.90
2023-01-18T11:14:01.951Z,174.10
2023-01-18T11:15:01.943Z,99.20
2023-01-18T11:16:01.992Z,101.30
2023-01-18T11:17:01.937Z,103.90
2023-01-18T11:18:01.930Z,101.90
2023-01-18T11:19:01.945Z,95.50
2023-01-18T11:20:01.907Z,124.20
2023-01-18T11:21:01.936Z,114.40
2023-01-18T11:22:01.897Z,133.60
2023-01-18T11:23:02.337Z,97.50
2023-01-18T11:24:01.849Z,92.20
2023-01-18T11:25:01.837Z,262.20
2023-01-18T11:26:01.915Z,251.40
2023-01-18T11:27:01.867Z,231.00
2023-01-18T11:28:02.092Z,217.30
2023-01-18T11:29:01.812Z,114.60
2023-01-18T11:30:01.775Z,150.20
2023-01-18T11:31:01.811Z,109.20
2023-01-18T11:32:01.872Z,108.70
2023-01-18T11:33:01.789Z,144.40
2023-01-18T11:34:01.738Z,152.90
2023-01-18T11:35:04.121Z,165.60
2023-01-18T11:36:01.781Z,257.40
2023-01-18T11:37:01.703Z,237.40
2023-01-18T11:38:02.219Z,237.50
2023-01-18T11:39:01.680Z,223.80
2023-01-18T11:40:01.696Z,105.90
2023-01-18T11:41:01.697Z,118.00
2023-01-18T11:42:01.655Z,121.20
2023-01-18T11:43:01.639Z,122.40
2023-01-18T11:44:01.646Z,92.90
2023-01-18T11:45:01.628Z,112.10
2023-01-18T11:46:01.893Z,98.50
2023-01-18T11:47:01.583Z,107.70
2023-01-18T11:48:02.071Z,111.60
2023-01-18T11:49:01.587Z,117.10
2023-01-18T11:50:10.351Z,248.00
2023-01-18T11:51:02.594Z,274.20
2023-01-18T11:52:01.553Z,244.80
2023-01-18T11:53:01.542Z,232.60
2023-01-18T11:54:01.542Z,217.70
2023-01-18T11:55:01.480Z,114.70
2023-01-18T11:56:01.561Z,124.50
2023-01-18T11:57:01.484Z,114.30
2023-01-18T11:58:02.045Z,140.70
2023-01-18T11:59:01.461Z,96.80
2023-01-18T12:00:01.467Z,112.00
2023-01-18T12:01:01.547Z,98.80
2023-01-18T12:02:01.461Z,257.40
2023-01-18T12:03:01.681Z,240.00
2023-01-18T12:04:01.398Z,232.40
2023-01-18T12:05:01.380Z,106.50
2023-01-18T12:06:01.434Z,107.50
2023-01-18T12:07:01.377Z,123.00
2023-01-18T12:08:01.772Z,107.60
2023-01-18T12:09:01.343Z,135.40
2023-01-18T12:10:01.379Z,111.40
2023-01-18T12:11:01.348Z,144.20
2023-01-18T12:12:17.367Z,240.10
2023-01-18T12:13:02.289Z,237.60
2023-01-18T12:14:01.293Z,236.00
2023-01-18T12:15:01.263Z,226.10
2023-01-18T12:16:01.318Z,105.60
2023-01-18T12:17:01.248Z,144.80
2023-01-18T12:18:12.346Z,131.60
2023-01-18T12:19:02.232Z,118.40
2023-01-18T12:20:01.213Z,111.30
2023-01-18T12:21:01.264Z,140.00
2023-01-18T12:22:01.176Z,153.60
2023-01-18T12:23:01.164Z,181.50
2023-01-18T12:24:01.178Z,123.00
2023-01-18T12:25:01.179Z,134.10
2023-01-18T12:26:11.865Z,279.30
2023-01-18T12:27:02.156Z,289.90
2023-01-18T12:28:01.709Z,282.60
2023-01-18T12:29:01.103Z,278.20